CFG1907 KBOS-EDDF
Flight info
| Callsign | CFG1907 |
|---|---|
| Flight time | N/A |
| Altitude | 35000 |
| Route | LBSTA8 LBSTA DCT TAFFY N765B KODIK/M082F370 DCT 5530N05000W 5630N04000W 5630N03000W 5530N02000W DCT VENER DCT KOKIB/N0477F370 DCT MORAG DCT NUCHU L607 KONAN DCT KOK DCT SPI T180 NIVNU T847 IMCOM IMCOM1D |
| Aircraft | A339/H-SADE1E2E3GHIJ3J5M1P2RWXY/LB2D1 |
Departure
| Time | 2026-05-01 13:44 |
|---|---|
| Airport | Boston Logan International Airport (KBOS) |
Arrival
| Time | N/A |
|---|---|
| Airport | Frankfurt Main Airport (EDDF) |
| Time | Latitude | Longitude | Altitude | Speed | Heading |
|---|---|---|---|---|---|
| 2026-05-01 13:16 | 42.36043 | -71.01691 | 33 ft | 0 kts | 289° |
| 2026-05-01 13:29 | 42.36042 | -71.01688 | 33 ft | 1 kts | 289° |
| 2026-05-01 13:30 | 42.36030 | -71.01639 | 34 ft | 4 kts | 289° |
| 2026-05-01 13:31 | 42.36021 | -71.01588 | 33 ft | 1 kts | 233° |
| 2026-05-01 13:31 | 42.36027 | -71.01576 | 32 ft | 0 kts | 204° |
| 2026-05-01 13:35 | 42.36026 | -71.01576 | 32 ft | 0 kts | 204° |
| 2026-05-01 13:35 | 42.36006 | -71.01587 | 33 ft | 4 kts | 202° |
| 2026-05-01 13:35 | 42.35965 | -71.01608 | 36 ft | 3 kts | 200° |
| 2026-05-01 13:36 | 42.35950 | -71.01615 | 35 ft | 4 kts | 199° |
| 2026-05-01 13:36 | 42.35906 | -71.01635 | 36 ft | 10 kts | 199° |
| 2026-05-01 13:36 | 42.35800 | -71.01548 | 36 ft | 10 kts | 104° |
| 2026-05-01 13:37 | 42.35779 | -71.01450 | 36 ft | 13 kts | 109° |
| 2026-05-01 13:37 | 42.35755 | -71.01310 | 32 ft | 17 kts | 85° |
| 2026-05-01 13:37 | 42.35831 | -71.01191 | 30 ft | 16 kts | 59° |
| 2026-05-01 13:37 | 42.35843 | -71.01050 | 28 ft | 15 kts | 75° |
| 2026-05-01 13:38 | 42.35967 | -71.00792 | 28 ft | 19 kts | 81° |
| 2026-05-01 13:38 | 42.35929 | -71.00596 | 28 ft | 23 kts | 112° |
| 2026-05-01 13:38 | 42.35880 | -71.00393 | 30 ft | 21 kts | 92° |
| 2026-05-01 13:39 | 42.35902 | -71.00254 | 34 ft | 0 kts | 77° |
| 2026-05-01 13:40 | 42.35913 | -71.00189 | 35 ft | 9 kts | 77° |
| 2026-05-01 13:40 | 42.35927 | -71.00102 | 35 ft | 10 kts | 77° |
| 2026-05-01 13:41 | 42.35943 | -71.00007 | 34 ft | 11 kts | 77° |
| 2026-05-01 13:41 | 42.35969 | -70.99886 | 35 ft | 16 kts | 75° |
| 2026-05-01 13:41 | 42.35999 | -70.99697 | 35 ft | 25 kts | 78° |
| 2026-05-01 13:41 | 42.36045 | -70.99424 | 31 ft | 34 kts | 76° |
| 2026-05-01 13:42 | 42.36115 | -70.99080 | 28 ft | 34 kts | 75° |
| 2026-05-01 13:42 | 42.36098 | -70.98942 | 30 ft | 12 kts | 144° |
| 2026-05-01 13:42 | 42.36076 | -70.98930 | 29 ft | 0 kts | 160° |
| 2026-05-01 13:42 | 42.36034 | -70.98918 | 27 ft | 15 kts | 177° |
| 2026-05-01 13:43 | 42.35991 | -70.98984 | 31 ft | 0 kts | 258° |
| 2026-05-01 13:43 | 42.35973 | -70.99091 | 27 ft | 41 kts | 259° |
| 2026-05-01 13:44 | 42.35849 | -70.99776 | 36 ft | 107 kts | 257° |
| 2026-05-01 13:44 | 42.35623 | -71.01006 | 33 ft | 159 kts | 257° |
| 2026-05-01 13:44 | 42.35297 | -71.02490 | 405 ft | 165 kts | 256° |
| 2026-05-01 13:44 | 42.34879 | -71.03979 | 823 ft | 173 kts | 238° |
| 2026-05-01 13:45 | 42.34278 | -71.05428 | 1278 ft | 183 kts | 227° |
| 2026-05-01 13:45 | 42.33442 | -71.06807 | 1666 ft | 195 kts | 221° |
| 2026-05-01 13:45 | 42.32412 | -71.07977 | 2231 ft | 196 kts | 219° |
| 2026-05-01 13:45 | 42.31259 | -71.08999 | 2561 ft | 208 kts | 204° |
| 2026-05-01 13:46 | 42.30020 | -71.10084 | 2832 ft | 214 kts | 215° |
| 2026-05-01 13:46 | 42.28921 | -71.11386 | 3301 ft | 213 kts | 220° |
| 2026-05-01 13:46 | 42.27917 | -71.12913 | 3658 ft | 220 kts | 227° |
| 2026-05-01 13:46 | 42.27115 | -71.14736 | 3706 ft | 239 kts | 258° |
| 2026-05-01 13:47 | 42.27052 | -71.17007 | 4018 ft | 245 kts | 285° |
| 2026-05-01 13:47 | 42.27778 | -71.19160 | 4004 ft | 270 kts | 303° |
| 2026-05-01 13:47 | 42.29201 | -71.20792 | 4531 ft | 271 kts | 326° |
| 2026-05-01 13:47 | 42.30945 | -71.21857 | 5103 ft | 276 kts | 331° |
| 2026-05-01 13:48 | 42.32701 | -71.22981 | 5481 ft | 284 kts | 322° |
| 2026-05-01 13:48 | 42.34445 | -71.24312 | 5853 ft | 292 kts | 328° |
| 2026-05-01 13:48 | 42.36294 | -71.25307 | 6780 ft | 283 kts | 341° |
| 2026-05-01 13:48 | 42.38221 | -71.25522 | 7684 ft | 278 kts | 358° |
| 2026-05-01 13:49 | 42.40122 | -71.24932 | 8238 ft | 284 kts | 17° |
| 2026-05-01 13:49 | 42.41898 | -71.23687 | 8687 ft | 291 kts | 26° |
| 2026-05-01 13:49 | 42.43595 | -71.22164 | 9206 ft | 294 kts | 31° |
| 2026-05-01 13:49 | 42.45260 | -71.20527 | 9712 ft | 297 kts | 30° |
| 2026-05-01 13:50 | 42.46987 | -71.18996 | 10114 ft | 303 kts | 27° |
| 2026-05-01 13:50 | 42.48832 | -71.17476 | 10240 ft | 317 kts | 26° |
| 2026-05-01 13:50 | 42.50708 | -71.15764 | 10375 ft | 334 kts | 34° |
| 2026-05-01 13:50 | 42.52410 | -71.13519 | 10516 ft | 349 kts | 46° |
| 2026-05-01 13:51 | 42.53859 | -71.10839 | 10888 ft | 355 kts | 51° |
| 2026-05-01 13:51 | 42.55300 | -71.08097 | 11272 ft | 359 kts | 51° |
| 2026-05-01 13:51 | 42.56765 | -71.05324 | 11726 ft | 363 kts | 52° |
| 2026-05-01 13:51 | 42.58234 | -71.02524 | 12161 ft | 366 kts | 52° |
| 2026-05-01 13:52 | 42.59715 | -70.99689 | 12590 ft | 370 kts | 52° |
| 2026-05-01 13:52 | 42.61214 | -70.96825 | 13019 ft | 374 kts | 52° |
| 2026-05-01 13:52 | 42.62727 | -70.93933 | 13477 ft | 377 kts | 53° |
| 2026-05-01 13:52 | 42.64257 | -70.91009 | 13892 ft | 381 kts | 52° |
| 2026-05-01 13:53 | 42.65806 | -70.88073 | 14328 ft | 383 kts | 52° |
| 2026-05-01 13:53 | 42.68965 | -70.82157 | 15105 ft | 389 kts | 52° |
| 2026-05-01 13:53 | 42.70574 | -70.79177 | 15499 ft | 392 kts | 53° |
| 2026-05-01 13:54 | 42.72186 | -70.76155 | 15710 ft | 396 kts | 53° |
| 2026-05-01 13:54 | 42.73773 | -70.73167 | 15807 ft | 395 kts | 53° |
| 2026-05-01 13:54 | 42.75377 | -70.70141 | 15877 ft | 396 kts | 53° |
| 2026-05-01 13:54 | 42.76989 | -70.67099 | 15894 ft | 396 kts | 53° |
| 2026-05-01 13:55 | 42.78614 | -70.64071 | 15930 ft | 397 kts | 50° |
| 2026-05-01 13:55 | 42.80570 | -70.61418 | 16344 ft | 396 kts | 36° |
| 2026-05-01 13:55 | 42.82881 | -70.59402 | 16744 ft | 395 kts | 23° |
| 2026-05-01 13:55 | 42.85368 | -70.57789 | 17096 ft | 398 kts | 22° |
| 2026-05-01 13:56 | 42.87877 | -70.56151 | 17487 ft | 401 kts | 22° |
| 2026-05-01 13:56 | 42.90398 | -70.54501 | 17872 ft | 404 kts | 22° |
| 2026-05-01 13:56 | 42.92942 | -70.52830 | 18237 ft | 407 kts | 23° |
| 2026-05-01 13:56 | 42.95494 | -70.51135 | 18622 ft | 409 kts | 23° |
| 2026-05-01 13:57 | 42.98049 | -70.49422 | 19009 ft | 410 kts | 24° |
| 2026-05-01 13:57 | 43.00619 | -70.47698 | 19371 ft | 412 kts | 24° |
| 2026-05-01 13:57 | 43.03203 | -70.45970 | 19743 ft | 414 kts | 24° |
| 2026-05-01 13:57 | 43.05799 | -70.44231 | 20112 ft | 416 kts | 24° |
| 2026-05-01 13:58 | 43.08407 | -70.42486 | 20492 ft | 418 kts | 24° |
| 2026-05-01 13:58 | 43.11029 | -70.40731 | 20866 ft | 421 kts | 24° |
| 2026-05-01 13:58 | 43.13662 | -70.38968 | 21243 ft | 423 kts | 24° |
| 2026-05-01 13:58 | 43.16311 | -70.37192 | 21613 ft | 425 kts | 24° |
| 2026-05-01 13:59 | 43.18974 | -70.35404 | 21991 ft | 427 kts | 24° |
| 2026-05-01 13:59 | 43.21646 | -70.33607 | 22367 ft | 429 kts | 24° |
| 2026-05-01 13:59 | 43.24335 | -70.31801 | 22747 ft | 431 kts | 24° |
| 2026-05-01 13:59 | 43.27042 | -70.29995 | 23131 ft | 434 kts | 24° |
| 2026-05-01 14:00 | 43.29761 | -70.28181 | 23463 ft | 436 kts | 24° |
| 2026-05-01 14:00 | 43.32493 | -70.26347 | 23764 ft | 439 kts | 24° |
| 2026-05-01 14:00 | 43.35245 | -70.24491 | 24053 ft | 441 kts | 24° |
| 2026-05-01 14:00 | 43.38008 | -70.22622 | 24346 ft | 444 kts | 24° |
| 2026-05-01 14:01 | 43.40786 | -70.20741 | 24649 ft | 446 kts | 24° |
| 2026-05-01 14:01 | 43.43581 | -70.18847 | 24937 ft | 449 kts | 24° |
| 2026-05-01 14:01 | 43.46386 | -70.16943 | 25183 ft | 453 kts | 24° |
| 2026-05-01 14:01 | 43.49225 | -70.15014 | 25464 ft | 455 kts | 25° |
| 2026-05-01 14:02 | 43.52073 | -70.13077 | 25755 ft | 458 kts | 25° |
| 2026-05-01 14:02 | 43.54934 | -70.11129 | 26025 ft | 460 kts | 25° |
| 2026-05-01 14:02 | 43.57810 | -70.09170 | 26302 ft | 463 kts | 25° |
| 2026-05-01 14:02 | 43.60707 | -70.07197 | 26591 ft | 465 kts | 25° |
| 2026-05-01 14:03 | 43.63621 | -70.05222 | 26819 ft | 469 kts | 25° |
| 2026-05-01 14:03 | 43.66560 | -70.03231 | 27089 ft | 471 kts | 25° |
| 2026-05-01 14:03 | 43.69505 | -70.01228 | 27368 ft | 473 kts | 25° |
| 2026-05-01 14:03 | 43.72464 | -69.99205 | 27641 ft | 476 kts | 25° |
| 2026-05-01 14:04 | 43.75438 | -69.97166 | 27896 ft | 478 kts | 26° |
| 2026-05-01 14:04 | 43.78422 | -69.95115 | 28152 ft | 480 kts | 26° |
| 2026-05-01 14:04 | 43.81426 | -69.93061 | 28354 ft | 484 kts | 26° |
| 2026-05-01 14:04 | 43.83426 | -69.91691 | 28526 ft | 485 kts | 26° |
| 2026-05-01 14:05 | 43.87489 | -69.88898 | 28852 ft | 488 kts | 26° |
| 2026-05-01 14:05 | 43.90536 | -69.86795 | 29097 ft | 490 kts | 26° |
| 2026-05-01 14:05 | 43.93556 | -69.84709 | 29329 ft | 493 kts | 26° |
| 2026-05-01 14:05 | 43.96628 | -69.82582 | 29553 ft | 495 kts | 27° |
| 2026-05-01 14:06 | 43.99721 | -69.80445 | 29735 ft | 498 kts | 27° |
| 2026-05-01 14:06 | 44.02829 | -69.78290 | 29992 ft | 500 kts | 27° |
| 2026-05-01 14:06 | 44.05941 | -69.76128 | 30233 ft | 501 kts | 27° |
| 2026-05-01 14:06 | 44.09059 | -69.73959 | 30480 ft | 502 kts | 27° |
| 2026-05-01 14:07 | 44.12187 | -69.71780 | 30727 ft | 503 kts | 27° |
| 2026-05-01 14:07 | 44.15319 | -69.69598 | 30967 ft | 504 kts | 27° |
| 2026-05-01 14:07 | 44.18462 | -69.67407 | 31205 ft | 505 kts | 27° |
| 2026-05-01 14:08 | 44.24762 | -69.63005 | 31678 ft | 508 kts | 27° |
| 2026-05-01 14:08 | 44.27902 | -69.60807 | 31917 ft | 509 kts | 27° |
| 2026-05-01 14:08 | 44.31069 | -69.58589 | 32151 ft | 510 kts | 27° |
| 2026-05-01 14:08 | 44.34247 | -69.56363 | 32380 ft | 511 kts | 27° |
| 2026-05-01 14:09 | 44.37423 | -69.54133 | 32555 ft | 512 kts | 27° |
| 2026-05-01 14:09 | 44.40607 | -69.51893 | 32723 ft | 513 kts | 27° |
| 2026-05-01 14:09 | 44.43800 | -69.49640 | 32879 ft | 514 kts | 28° |
| 2026-05-01 14:09 | 44.46990 | -69.47372 | 33021 ft | 515 kts | 28° |
| 2026-05-01 14:10 | 44.50183 | -69.45103 | 33127 ft | 516 kts | 28° |
| 2026-05-01 14:10 | 44.56610 | -69.40548 | 33324 ft | 518 kts | 28° |
| 2026-05-01 14:10 | 44.59826 | -69.38270 | 33474 ft | 518 kts | 28° |
| 2026-05-01 14:11 | 44.63038 | -69.35994 | 33630 ft | 517 kts | 28° |
| 2026-05-01 14:11 | 44.69419 | -69.31467 | 33879 ft | 517 kts | 28° |
| 2026-05-01 14:11 | 44.72634 | -69.29181 | 33970 ft | 517 kts | 28° |
| 2026-05-01 14:12 | 44.75839 | -69.26899 | 34077 ft | 517 kts | 28° |
| 2026-05-01 14:12 | 44.79057 | -69.24604 | 34180 ft | 517 kts | 28° |
| 2026-05-01 14:12 | 44.82263 | -69.22315 | 34287 ft | 517 kts | 28° |
| 2026-05-01 14:12 | 44.85476 | -69.20019 | 34393 ft | 517 kts | 28° |
| 2026-05-01 14:13 | 44.88688 | -69.17721 | 34499 ft | 517 kts | 28° |
| 2026-05-01 14:13 | 44.90812 | -69.16199 | 34571 ft | 517 kts | 28° |
| 2026-05-01 14:13 | 44.95102 | -69.13122 | 34714 ft | 517 kts | 28° |
| 2026-05-01 14:13 | 44.98310 | -69.10818 | 34785 ft | 517 kts | 28° |
| 2026-05-01 14:14 | 45.04723 | -69.06206 | 34799 ft | 517 kts | 28° |
| 2026-05-01 14:14 | 45.11137 | -69.01580 | 34799 ft | 517 kts | 28° |
| 2026-05-01 14:15 | 45.17539 | -68.96950 | 34802 ft | 517 kts | 28° |
| 2026-05-01 14:15 | 45.23951 | -68.92305 | 34797 ft | 518 kts | 29° |
| 2026-05-01 14:16 | 45.30291 | -68.87681 | 34790 ft | 518 kts | 29° |
| 2026-05-01 14:16 | 45.36743 | -68.82960 | 34786 ft | 518 kts | 29° |
| 2026-05-01 14:17 | 45.43110 | -68.78296 | 34786 ft | 518 kts | 30° |
| 2026-05-01 14:17 | 45.49442 | -68.73657 | 34793 ft | 518 kts | 30° |
| 2026-05-01 14:18 | 45.55869 | -68.68941 | 34804 ft | 518 kts | 30° |
| 2026-05-01 14:18 | 45.61202 | -68.65021 | 34791 ft | 519 kts | 30° |
| 2026-05-01 14:19 | 45.68654 | -68.59524 | 34816 ft | 519 kts | 30° |
| 2026-05-01 14:19 | 45.75031 | -68.54806 | 34794 ft | 519 kts | 30° |
| 2026-05-01 14:20 | 45.84665 | -68.47662 | 34784 ft | 519 kts | 30° |
| 2026-05-01 14:21 | 45.91077 | -68.42884 | 34790 ft | 519 kts | 30° |
| 2026-05-01 14:21 | 45.97481 | -68.38102 | 34778 ft | 519 kts | 30° |
| 2026-05-01 14:22 | 46.07104 | -68.30893 | 34772 ft | 521 kts | 30° |
| 2026-05-01 14:22 | 46.12476 | -68.26856 | 34754 ft | 524 kts | 31° |
| 2026-05-01 14:23 | 46.18949 | -68.21981 | 34759 ft | 526 kts | 31° |
| 2026-05-01 14:23 | 46.25398 | -68.17110 | 34754 ft | 527 kts | 31° |
| 2026-05-01 14:24 | 46.31903 | -68.12183 | 34740 ft | 528 kts | 31° |
| 2026-05-01 14:24 | 46.38388 | -68.07248 | 34751 ft | 528 kts | 31° |
| 2026-05-01 14:25 | 46.44882 | -68.02289 | 34749 ft | 524 kts | 31° |
| 2026-05-01 14:25 | 46.51320 | -67.97373 | 34740 ft | 524 kts | 31° |
| 2026-05-01 14:26 | 46.60994 | -67.89962 | 34745 ft | 524 kts | 31° |
| 2026-05-01 14:27 | 46.67437 | -67.85009 | 34747 ft | 524 kts | 32° |
| 2026-05-01 14:27 | 46.73873 | -67.80031 | 34742 ft | 524 kts | 32° |
| 2026-05-01 14:28 | 46.83533 | -67.72552 | 34738 ft | 524 kts | 32° |
| 2026-05-01 14:28 | 46.89965 | -67.67562 | 34740 ft | 523 kts | 32° |
| 2026-05-01 14:29 | 46.96396 | -67.62560 | 34744 ft | 524 kts | 32° |
| 2026-05-01 14:30 | 47.09259 | -67.52516 | 34751 ft | 524 kts | 32° |
| 2026-05-01 14:31 | 47.18902 | -67.44944 | 34771 ft | 524 kts | 32° |
| 2026-05-01 14:31 | 47.25329 | -67.39887 | 34758 ft | 524 kts | 32° |
| 2026-05-01 14:32 | 47.31761 | -67.34813 | 34757 ft | 525 kts | 32° |
| 2026-05-01 14:32 | 47.37928 | -67.29182 | 34765 ft | 518 kts | 42° |
| 2026-05-01 14:33 | 47.43289 | -67.22170 | 34775 ft | 513 kts | 49° |
| 2026-05-01 14:33 | 47.48523 | -67.14980 | 34779 ft | 514 kts | 49° |
| 2026-05-01 14:34 | 47.53772 | -67.07787 | 34781 ft | 515 kts | 49° |
| 2026-05-01 14:34 | 47.58976 | -67.00612 | 34790 ft | 515 kts | 49° |
| 2026-05-01 14:35 | 47.64209 | -66.93372 | 34789 ft | 515 kts | 49° |
| 2026-05-01 14:35 | 47.69445 | -66.86120 | 34801 ft | 515 kts | 49° |
| 2026-05-01 14:36 | 47.74675 | -66.78849 | 34794 ft | 515 kts | 49° |
| 2026-05-01 14:36 | 47.79892 | -66.71556 | 34790 ft | 515 kts | 50° |
| 2026-05-01 14:37 | 47.85110 | -66.64254 | 34810 ft | 515 kts | 50° |
| 2026-05-01 14:37 | 47.90325 | -66.56938 | 34819 ft | 515 kts | 50° |
| 2026-05-01 14:38 | 47.95542 | -66.49599 | 34826 ft | 516 kts | 50° |
| 2026-05-01 14:38 | 48.00751 | -66.42252 | 34796 ft | 515 kts | 50° |
| 2026-05-01 14:39 | 48.05964 | -66.34870 | 34813 ft | 517 kts | 50° |
| 2026-05-01 14:39 | 48.11184 | -66.27460 | 34817 ft | 518 kts | 50° |
| 2026-05-01 14:40 | 48.16407 | -66.20023 | 34818 ft | 518 kts | 50° |
| 2026-05-01 14:40 | 48.21618 | -66.12557 | 34819 ft | 519 kts | 51° |
| 2026-05-01 14:41 | 48.26799 | -66.05106 | 34831 ft | 519 kts | 50° |
| 2026-05-01 14:41 | 48.32051 | -65.97559 | 34826 ft | 520 kts | 50° |
| 2026-05-01 14:42 | 48.37282 | -65.90024 | 34833 ft | 522 kts | 50° |
| 2026-05-01 14:42 | 48.42528 | -65.82446 | 34843 ft | 523 kts | 50° |
| 2026-05-01 14:43 | 48.47735 | -65.74903 | 34857 ft | 523 kts | 50° |
| 2026-05-01 14:43 | 48.52974 | -65.67289 | 34875 ft | 523 kts | 50° |
| 2026-05-01 14:44 | 48.58205 | -65.59661 | 34881 ft | 523 kts | 50° |
| 2026-05-01 14:44 | 48.66041 | -65.48194 | 34877 ft | 523 kts | 50° |
| 2026-05-01 14:45 | 48.73867 | -65.36685 | 34888 ft | 523 kts | 50° |
| 2026-05-01 14:46 | 48.79075 | -65.28998 | 34892 ft | 523 kts | 50° |
| 2026-05-01 14:46 | 48.86872 | -65.17440 | 34869 ft | 522 kts | 50° |
| 2026-05-01 14:47 | 48.92060 | -65.09719 | 34877 ft | 523 kts | 49° |
| 2026-05-01 14:48 | 48.99866 | -64.98061 | 34907 ft | 526 kts | 49° |
| 2026-05-01 14:48 | 49.07680 | -64.86337 | 34933 ft | 525 kts | 49° |
| 2026-05-01 14:49 | 49.18077 | -64.70654 | 34952 ft | 525 kts | 49° |
| 2026-05-01 14:50 | 49.28448 | -64.54907 | 34952 ft | 525 kts | 49° |
| 2026-05-01 14:51 | 49.36219 | -64.43046 | 34958 ft | 527 kts | 49° |
| 2026-05-01 14:52 | 49.44000 | -64.31109 | 34952 ft | 527 kts | 49° |
| 2026-05-01 14:53 | 49.51758 | -64.19155 | 34973 ft | 526 kts | 49° |
| 2026-05-01 14:53 | 49.56923 | -64.11163 | 34970 ft | 526 kts | 49° |
| 2026-05-01 14:54 | 49.62041 | -64.03219 | 34974 ft | 526 kts | 49° |
| 2026-05-01 14:54 | 49.67185 | -63.95209 | 34969 ft | 526 kts | 49° |
| 2026-05-01 14:55 | 49.72328 | -63.87173 | 34958 ft | 526 kts | 49° |
| 2026-05-01 14:55 | 49.77461 | -63.79126 | 35009 ft | 523 kts | 48° |
| 2026-05-01 14:56 | 49.82557 | -63.71117 | 35009 ft | 521 kts | 48° |
| 2026-05-01 14:56 | 49.87635 | -63.63106 | 35004 ft | 520 kts | 48° |
| 2026-05-01 14:57 | 49.92702 | -63.55089 | 34999 ft | 520 kts | 48° |
| 2026-05-01 14:57 | 50.00224 | -63.43135 | 35056 ft | 514 kts | 47° |
| 2026-05-01 14:58 | 50.05208 | -63.35187 | 35060 ft | 512 kts | 47° |
| 2026-05-01 14:58 | 50.10170 | -63.27246 | 35053 ft | 511 kts | 47° |
| 2026-05-01 14:59 | 50.15118 | -63.19300 | 35059 ft | 510 kts | 47° |
| 2026-05-01 14:59 | 50.20058 | -63.11347 | 35079 ft | 510 kts | 47° |
| 2026-05-01 15:00 | 50.27461 | -62.99384 | 35091 ft | 510 kts | 47° |
| 2026-05-01 15:01 | 50.32389 | -62.91383 | 35095 ft | 511 kts | 47° |
| 2026-05-01 15:01 | 50.37313 | -62.83365 | 35100 ft | 511 kts | 47° |
| 2026-05-01 15:02 | 50.42232 | -62.75316 | 35102 ft | 511 kts | 48° |
| 2026-05-01 15:02 | 50.47145 | -62.67245 | 35123 ft | 510 kts | 47° |
| 2026-05-01 15:03 | 50.52030 | -62.59212 | 35135 ft | 508 kts | 47° |
| 2026-05-01 15:03 | 50.56905 | -62.51177 | 35132 ft | 507 kts | 47° |
| 2026-05-01 15:04 | 50.61764 | -62.43143 | 35125 ft | 506 kts | 47° |
| 2026-05-01 15:04 | 50.66603 | -62.35109 | 35153 ft | 504 kts | 47° |
| 2026-05-01 15:05 | 50.71412 | -62.27105 | 35142 ft | 502 kts | 47° |
| 2026-05-01 15:05 | 50.76201 | -62.19107 | 35135 ft | 501 kts | 47° |
| 2026-05-01 15:06 | 50.80978 | -62.11107 | 35140 ft | 500 kts | 47° |
| 2026-05-01 15:06 | 50.85743 | -62.03102 | 35143 ft | 499 kts | 47° |
| 2026-05-01 15:07 | 50.90492 | -61.95093 | 35141 ft | 499 kts | 47° |
| 2026-05-01 15:07 | 50.95234 | -61.87070 | 35140 ft | 498 kts | 48° |
| 2026-05-01 15:08 | 50.99938 | -61.79088 | 35138 ft | 498 kts | 48° |
| 2026-05-01 15:08 | 51.04668 | -61.71040 | 35148 ft | 498 kts | 48° |
| 2026-05-01 15:09 | 51.09387 | -61.62980 | 35145 ft | 498 kts | 48° |
| 2026-05-01 15:09 | 51.13335 | -61.56217 | 35146 ft | 498 kts | 48° |
| 2026-05-01 15:10 | 51.18046 | -61.48123 | 35157 ft | 498 kts | 49° |
| 2026-05-01 15:10 | 51.25090 | -61.35977 | 35165 ft | 497 kts | 49° |
| 2026-05-01 15:11 | 51.32106 | -61.23811 | 35162 ft | 496 kts | 49° |
| 2026-05-01 15:12 | 51.36778 | -61.15677 | 35166 ft | 496 kts | 49° |
| 2026-05-01 15:12 | 51.43767 | -61.03466 | 35174 ft | 496 kts | 49° |
| 2026-05-01 15:14 | 51.55342 | -60.83102 | 35168 ft | 495 kts | 50° |
| 2026-05-01 15:14 | 51.62294 | -60.70794 | 35174 ft | 495 kts | 50° |
| 2026-05-01 15:15 | 51.71538 | -60.54329 | 35186 ft | 496 kts | 50° |
| 2026-05-01 15:16 | 51.80771 | -60.37775 | 35189 ft | 496 kts | 50° |
| 2026-05-01 15:18 | 51.92292 | -60.16980 | 35215 ft | 497 kts | 50° |
| 2026-05-01 15:19 | 52.01504 | -60.00250 | 35193 ft | 498 kts | 50° |
| 2026-05-01 15:19 | 52.08392 | -59.87642 | 35213 ft | 497 kts | 50° |
| 2026-05-01 15:20 | 52.15272 | -59.74997 | 35215 ft | 497 kts | 50° |
| 2026-05-01 15:21 | 52.19854 | -59.66549 | 35215 ft | 497 kts | 50° |
| 2026-05-01 15:21 | 52.24425 | -59.58074 | 35197 ft | 497 kts | 50° |
| 2026-05-01 15:22 | 52.31266 | -59.45326 | 35186 ft | 498 kts | 50° |
| 2026-05-01 15:22 | 52.35824 | -59.36799 | 35196 ft | 498 kts | 50° |
| 2026-05-01 15:23 | 52.40379 | -59.28248 | 35212 ft | 498 kts | 50° |
| 2026-05-01 15:23 | 52.44928 | -59.19679 | 35197 ft | 498 kts | 50° |
| 2026-05-01 15:24 | 52.49477 | -59.11079 | 35188 ft | 500 kts | 50° |
| 2026-05-01 15:24 | 52.54030 | -59.02444 | 35197 ft | 500 kts | 50° |
| 2026-05-01 15:25 | 52.58549 | -58.93846 | 35212 ft | 501 kts | 50° |
| 2026-05-01 15:25 | 52.63095 | -58.85168 | 35214 ft | 501 kts | 50° |
| 2026-05-01 15:26 | 52.67640 | -58.76458 | 35208 ft | 502 kts | 50° |
| 2026-05-01 15:26 | 52.72189 | -58.67723 | 35218 ft | 502 kts | 50° |
| 2026-05-01 15:27 | 52.76738 | -58.58977 | 35219 ft | 502 kts | 50° |
| 2026-05-01 15:28 | 52.83540 | -58.45802 | 35216 ft | 502 kts | 50° |
| 2026-05-01 15:28 | 52.88067 | -58.36990 | 35221 ft | 503 kts | 50° |
| 2026-05-01 15:29 | 52.94845 | -58.23735 | 35225 ft | 503 kts | 50° |
| 2026-05-01 15:30 | 53.03865 | -58.05993 | 35229 ft | 503 kts | 51° |
| 2026-05-01 15:31 | 53.17340 | -57.79249 | 35236 ft | 502 kts | 51° |
| 2026-05-01 15:32 | 53.26294 | -57.61340 | 35234 ft | 502 kts | 51° |
| 2026-05-01 15:34 | 53.39632 | -57.34468 | 35230 ft | 501 kts | 52° |